Time;durP1;ratioP1;P1;durP2;ratioP2;P2;SDS_P1;SDS_P2;PMS_P1;PMS_P2;Temp;Humidity;BMP_temperature;BMP_pressure;BME280_temperature;BME280_humidity;BME280_pressure;Samples;Min_cycle;Max_cycle;Signal;HPM_P1;HPM_P2
2022/11/12 00:00:54;;;;;;;;;;;10.00;1.00;;;;;;5055626;28;19966;-76
2022/11/12 00:03:20;;;;;;;;;;;9.90;1.00;;;;;;5057028;28;20285;-73
2022/11/12 00:05:48;;;;;;;;;;;10.00;1.00;;;;;;5056938;28;19908;-74
2022/11/12 00:08:13;;;;;;;;;;;9.90;1.00;;;;;;5038938;28;19920;-75
2022/11/12 00:10:39;;;;;;;;;;;9.90;1.00;;;;;;5056653;28;19999;-74
2022/11/12 00:13:04;;;;;;;;;;;9.80;1.00;;;;;;5056563;28;19909;-74
2022/11/12 00:15:30;;;;;;;;;;;9.80;1.00;;;;;;5056801;28;19913;-74
2022/11/12 00:17:56;;;;;;;;;;;9.80;1.00;;;;;;5056610;28;19913;-76
2022/11/12 00:20:21;;;;;;;;;;;9.80;1.00;;;;;;5056662;28;19916;-75
2022/11/12 00:22:47;;;;;;;;;;;9.70;1.00;;;;;;5056466;28;19909;-77
2022/11/12 00:25:12;;;;;;;;;;;9.60;1.00;;;;;;5056657;28;20296;-74
2022/11/12 00:27:38;;;;;;;;;;;9.60;1.00;;;;;;5056534;28;19917;-74
2022/11/12 00:30:04;;;;;;;;;;;9.60;1.00;;;;;;5056046;28;19921;-75
2022/11/12 00:32:29;;;;;;;;;;;9.70;1.00;;;;;;5056432;28;19975;-76
2022/11/12 00:34:55;;;;;;;;;;;9.80;1.00;;;;;;5056422;28;20000;-75
2022/11/12 00:37:22;;;;;;;;;;;9.80;1.00;;;;;;5056672;28;19916;-73
2022/11/12 00:39:49;;;;;;;;;;;9.80;1.00;;;;;;5038172;28;20000;-74
2022/11/12 00:42:14;;;;;;;;;;;9.80;1.00;;;;;;5056116;28;19913;-74
2022/11/12 00:44:40;;;;;;;;;;;9.80;1.00;;;;;;5056246;28;19915;-73
2022/11/12 00:47:05;;;;;;;;;;;9.90;1.00;;;;;;5037819;28;19916;-75
2022/11/12 00:49:31;;;;;;;;;;;10.00;1.00;;;;;;5056005;28;19909;-73
2022/11/12 00:51:57;;;;;;;;;;;9.90;1.00;;;;;;5056156;28;19932;-74
2022/11/12 00:54:22;;;;;;;;;;;9.90;1.00;;;;;;5055867;28;19913;-75
2022/11/12 00:56:48;;;;;;;;;;;9.70;1.00;;;;;;5055687;28;19916;-76
2022/11/12 00:59:14;;;;;;;;;;;9.70;1.00;;;;;;5055878;28;19940;-76
2022/11/12 01:01:39;;;;;;;;;;;9.60;1.00;;;;;;5055776;28;20347;-74
2022/11/12 01:04:05;;;;;;;;;;;9.70;1.00;;;;;;5055909;28;20454;-74
2022/11/12 01:06:31;;;;;;;;;;;9.70;1.00;;;;;;5055660;28;19909;-73
2022/11/12 01:08:56;;;;;;;;;;;9.50;1.00;;;;;;5055608;28;19913;-75
2022/11/12 01:11:23;;;;;;;;;;;9.50;1.00;;;;;;5055287;28;19913;-72
2022/11/12 01:13:53;;;;;;;;;;;9.50;1.00;;;;;;5055281;28;19909;-74
2022/11/12 01:16:20;;;;;;;;;;;9.50;1.00;;;;;;5055626;28;19909;-77
2022/11/12 01:18:46;;;;;;;;;;;9.50;1.00;;;;;;5055277;28;20373;-75
2022/11/12 01:21:12;;;;;;;;;;;9.40;1.00;;;;;;5055475;28;19915;-73
2022/11/12 01:23:39;;;;;;;;;;;9.40;1.00;;;;;;5055432;28;19919;-76
2022/11/12 01:26:05;;;;;;;;;;;9.50;1.00;;;;;;5055398;28;20430;-77
2022/11/12 01:28:31;;;;;;;;;;;9.50;1.00;;;;;;5055245;28;19916;-72
2022/11/12 01:30:57;;;;;;;;;;;9.40;1.00;;;;;;5054870;28;19920;-75
2022/11/12 01:33:22;;;;;;;;;;;9.40;1.00;;;;;;5055444;28;19916;-74
2022/11/12 01:35:48;;;;;;;;;;;9.40;1.00;;;;;;5055168;28;19909;-76
2022/11/12 01:38:13;;;;;;;;;;;9.30;1.00;;;;;;5055138;28;19952;-75
2022/11/12 01:40:39;;;;;;;;;;;9.30;1.00;;;;;;5055129;28;19909;-74
2022/11/12 01:43:10;;;;;;;;;;;9.40;1.00;;;;;;5055087;28;19908;-73
2022/11/12 01:45:38;;;;;;;;;;;9.40;1.00;;;;;;5055234;28;19908;-73
2022/11/12 01:48:04;;;;;;;;;;;9.20;1.00;;;;;;5036990;28;19913;-75
2022/11/12 01:50:31;;;;;;;;;;;9.30;1.00;;;;;;5054769;28;19908;-75
2022/11/12 01:52:59;;;;;;;;;;;9.20;1.00;;;;;;5054755;28;19908;-76
2022/11/12 01:55:28;;;;;;;;;;;9.30;1.00;;;;;;5054904;28;19912;-74
2022/11/12 01:57:58;;;;;;;;;;;9.20;1.00;;;;;;5054730;28;19909;-74
2022/11/12 02:00:23;;;;;;;;;;;9.20;1.00;;;;;;5036781;28;19956;-75
2022/11/12 02:02:54;;;;;;;;;;;9.10;1.00;;;;;;5054755;28;19948;-73
2022/11/12 02:05:22;;;;;;;;;;;9.10;1.00;;;;;;5036942;28;19909;-73
2022/11/12 02:07:48;;;;;;;;;;;9.10;1.00;;;;;;5036536;28;19924;-74
2022/11/12 02:10:13;;;;;;;;;;;9.10;1.00;;;;;;5054616;28;19913;-74
2022/11/12 02:15:24;;;;;;;;;;;9.20;1.00;;;;;;5054219;28;19962;-74
2022/11/12 02:17:49;;;;;;;;;;;9.20;1.00;;;;;;5054373;28;20322;-73
2022/11/12 02:20:15;;;;;;;;;;;9.30;1.00;;;;;;5054632;28;19995;-72
2022/11/12 02:22:41;;;;;;;;;;;9.30;1.00;;;;;;5054528;28;19909;-74
2022/11/12 02:25:08;;;;;;;;;;;9.20;1.00;;;;;;5053478;28;19995;-75
2022/11/12 02:27:34;;;;;;;;;;;9.20;1.00;;;;;;5054138;28;20005;-73
2022/11/12 02:30:00;;;;;;;;;;;9.20;1.00;;;;;;5053879;28;19921;-76
2022/11/12 02:32:25;;;;;;;;;;;9.20;1.00;;;;;;5054265;28;19909;-73
2022/11/12 02:34:51;;;;;;;;;;;9.20;1.00;;;;;;5054340;28;20031;-73
2022/11/12 02:37:16;;;;;;;;;;;9.20;1.00;;;;;;5036383;28;19913;-76
2022/11/12 02:39:42;;;;;;;;;;;9.10;1.00;;;;;;5054059;28;19912;-74
2022/11/12 02:42:08;;;;;;;;;;;9.10;1.00;;;;;;5054072;28;20438;-75
2022/11/12 02:44:33;;;;;;;;;;;9.20;1.00;;;;;;5053928;28;19979;-74
2022/11/12 02:46:59;;;;;;;;;;;9.20;1.00;;;;;;5054331;28;19916;-75
2022/11/12 02:49:24;;;;;;;;;;;9.10;99.90;;;;;;5035921;28;20349;-72
2022/11/12 02:51:50;;;;;;;;;;;9.10;99.90;;;;;;5053785;28;19916;-73
2022/11/12 02:54:15;;;;;;;;;;;8.90;99.90;;;;;;5053910;28;19948;-75
2022/11/12 02:56:41;;;;;;;;;;;8.80;99.90;;;;;;5053838;28;19909;-74
2022/11/12 02:59:07;;;;;;;;;;;8.80;1.00;;;;;;5054109;28;19909;-74
2022/11/12 03:01:32;;;;;;;;;;;8.90;1.00;;;;;;5053843;28;19913;-76
2022/11/12 03:03:58;;;;;;;;;;;9.00;1.00;;;;;;5053751;28;19913;-76
2022/11/12 03:06:24;;;;;;;;;;;9.00;1.00;;;;;;5035803;28;19935;-75
2022/11/12 03:08:49;;;;;;;;;;;9.00;1.00;;;;;;5053617;28;19967;-74
2022/11/12 03:11:15;;;;;;;;;;;9.00;1.00;;;;;;5053904;28;19953;-74
2022/11/12 03:13:41;;;;;;;;;;;9.10;1.00;;;;;;5053519;28;20285;-76
2022/11/12 03:16:07;;;;;;;;;;;9.10;1.00;;;;;;5053547;28;19909;-75
2022/11/12 03:18:32;;;;;;;;;;;9.10;99.90;;;;;;5053796;28;19948;-76
2022/11/12 03:20:58;;;;;;;;;;;9.00;99.90;;;;;;5054125;28;19909;-77
2022/11/12 03:23:25;;;;;;;;;;;9.00;1.00;;;;;;5053434;28;20380;-73
2022/11/12 03:25:50;;;;;;;;;;;9.10;1.00;;;;;;5053424;28;19909;-74
2022/11/12 03:28:16;;;;;;;;;;;9.10;1.00;;;;;;5053572;28;20276;-73
2022/11/12 03:30:42;;;;;;;;;;;9.20;1.00;;;;;;5053274;28;20393;-76
2022/11/12 03:33:09;;;;;;;;;;;9.20;1.00;;;;;;5053540;28;20007;-76
2022/11/12 03:35:34;;;;;;;;;;;9.20;1.00;;;;;;5055165;28;19962;-75
2022/11/12 03:38:00;;;;;;;;;;;9.20;1.00;;;;;;5057283;28;19917;-76
2022/11/12 03:40:26;;;;;;;;;;;9.10;1.00;;;;;;5057450;28;19908;-76
2022/11/12 03:42:51;;;;;;;;;;;9.10;1.00;;;;;;5057596;28;20324;-76
2022/11/12 03:45:18;;;;;;;;;;;9.20;1.00;;;;;;5057313;28;20370;-74
2022/11/12 03:47:44;;;;;;;;;;;9.10;1.00;;;;;;5057234;28;19913;-75
2022/11/12 03:50:11;;;;;;;;;;;9.20;1.00;;;;;;5057124;28;19909;-75
2022/11/12 03:52:37;;;;;;;;;;;9.20;1.00;;;;;;5057077;28;19916;-72
2022/11/12 03:55:03;;;;;;;;;;;9.10;1.00;;;;;;5057118;28;20007;-76
2022/11/12 03:57:29;;;;;;;;;;;9.00;1.00;;;;;;5057259;28;19909;-75
2022/11/12 03:59:55;;;;;;;;;;;9.00;1.00;;;;;;5057081;28;20330;-77
2022/11/12 04:02:20;;;;;;;;;;;9.00;1.00;;;;;;5057358;28;19915;-74
2022/11/12 04:10:14;;;;;;;;;;;8.80;1.00;;;;;;5056768;28;19951;-75
2022/11/12 04:15:24;;;;;;;;;;;8.70;1.00;;;;;;5056679;28;20294;-75
2022/11/12 04:23:17;;;;;;;;;;;8.60;1.00;;;;;;5056593;28;19915;-74
2022/11/12 04:28:27;;;;;;;;;;;8.70;1.00;;;;;;5056238;28;19935;-75
2022/11/12 04:30:53;;;;;;;;;;;8.70;1.00;;;;;;5055913;28;20448;-75
2022/11/12 04:33:23;;;;;;;;;;;8.70;1.00;;;;;;5055851;28;20303;-75
2022/11/12 04:35:48;;;;;;;;;;;8.80;1.00;;;;;;5056297;28;19915;-76
2022/11/12 04:38:14;;;;;;;;;;;8.70;1.00;;;;;;5056327;28;19909;-75
2022/11/12 04:46:08;;;;;;;;;;;8.90;1.00;;;;;;5055544;28;19966;-74
2022/11/12 04:48:34;;;;;;;;;;;8.90;1.00;;;;;;5055377;28;20392;-73
2022/11/12 04:51:00;;;;;;;;;;;9.00;1.00;;;;;;5056013;28;19908;-75
2022/11/12 04:53:28;;;;;;;;;;;9.10;1.00;;;;;;5055900;28;19996;-75
2022/11/12 04:55:55;;;;;;;;;;;9.10;1.00;;;;;;5055996;28;19909;-75
2022/11/12 04:58:21;;;;;;;;;;;9.00;1.00;;;;;;5056006;28;19916;-74
2022/11/12 05:00:47;;;;;;;;;;;9.00;1.00;;;;;;5055724;28;19913;-75
2022/11/12 05:03:14;;;;;;;;;;;9.00;1.00;;;;;;5055946;28;19951;-73
2022/11/12 05:05:39;;;;;;;;;;;8.90;1.00;;;;;;5055639;28;19916;-74
2022/11/12 05:08:05;;;;;;;;;;;9.00;1.00;;;;;;5055565;28;20272;-76
2022/11/12 05:10:31;;;;;;;;;;;9.00;1.00;;;;;;5055610;28;19944;-74
2022/11/12 05:12:56;;;;;;;;;;;8.80;1.00;;;;;;5055555;28;19909;-73
2022/11/12 05:15:22;;;;;;;;;;;8.90;1.00;;;;;;5055579;28;19916;-75
2022/11/12 05:17:48;;;;;;;;;;;8.80;1.00;;;;;;5055420;28;20400;-74
2022/11/12 05:20:13;;;;;;;;;;;8.80;1.00;;;;;;5055413;28;19909;-73
2022/11/12 05:22:39;;;;;;;;;;;8.70;1.00;;;;;;5055197;28;19916;-73
2022/11/12 05:25:05;;;;;;;;;;;8.80;1.00;;;;;;5055258;28;19955;-74
2022/11/12 05:27:32;;;;;;;;;;;8.80;1.00;;;;;;5055531;28;19913;-75
2022/11/12 05:29:59;;;;;;;;;;;8.70;1.00;;;;;;5055079;28;20008;-75
2022/11/12 05:32:26;;;;;;;;;;;8.70;1.00;;;;;;5055077;28;19913;-74
2022/11/12 05:34:52;;;;;;;;;;;8.70;1.00;;;;;;5055006;28;19956;-75
2022/11/12 05:37:18;;;;;;;;;;;8.60;1.00;;;;;;5037153;28;19916;-75
2022/11/12 05:39:44;;;;;;;;;;;8.60;1.00;;;;;;5055309;28;19932;-76
2022/11/12 05:42:09;;;;;;;;;;;8.50;1.00;;;;;;5054918;28;19916;-74
2022/11/12 05:44:35;;;;;;;;;;;8.50;1.00;;;;;;5055129;28;19952;-76
2022/11/12 05:47:00;;;;;;;;;;;8.60;1.00;;;;;;5054979;28;19916;-76
2022/11/12 05:49:26;;;;;;;;;;;8.60;1.00;;;;;;5054710;28;20483;-75
2022/11/12 05:51:51;;;;;;;;;;;8.50;1.00;;;;;;5054914;28;19916;-72
2022/11/12 05:54:17;;;;;;;;;;;8.50;1.00;;;;;;5054716;28;19992;-76
2022/11/12 05:56:43;;;;;;;;;;;8.50;1.00;;;;;;5054779;28;19935;-73
2022/11/12 05:59:09;;;;;;;;;;;8.50;1.00;;;;;;5054532;28;19908;-74
2022/11/12 06:01:42;;;;;;;;;;;8.50;11.40;;;;;;5054668;28;19908;-77
2022/11/12 06:04:11;;;;;;;;;;;8.50;18.00;;;;;;5054900;28;19935;-75
2022/11/12 06:06:37;;;;;;;;;;;8.60;20.10;;;;;;5054623;28;20395;-73
2022/11/12 06:09:03;;;;;;;;;;;8.50;21.40;;;;;;5054647;28;19916;-75
2022/11/12 06:11:28;;;;;;;;;;;8.50;22.90;;;;;;5054453;28;19970;-76
2022/11/12 06:13:54;;;;;;;;;;;8.50;28.60;;;;;;5054236;28;20014;-75
2022/11/12 06:16:20;;;;;;;;;;;8.50;40.60;;;;;;5054509;28;19943;-74
2022/11/12 06:18:45;;;;;;;;;;;8.50;43.30;;;;;;5054341;28;19939;-75
2022/11/12 06:21:23;;;;;;;;;;;8.60;59.10;;;;;;5054441;28;19909;-75
2022/11/12 06:23:50;;;;;;;;;;;8.60;64.20;;;;;;5036366;28;20007;-72
2022/11/12 06:26:16;;;;;;;;;;;8.60;72.20;;;;;;5054434;28;19916;-76
2022/11/12 06:28:42;;;;;;;;;;;8.60;79.60;;;;;;5054144;28;19916;-76
2022/11/12 06:31:07;;;;;;;;;;;8.60;86.50;;;;;;5053660;28;20431;-75
2022/11/12 06:33:33;;;;;;;;;;;8.50;78.90;;;;;;5054126;28;20373;-75
2022/11/12 06:36:01;;;;;;;;;;;8.60;99.80;;;;;;5054055;28;19909;-75
2022/11/12 06:38:30;;;;;;;;;;;8.60;99.90;;;;;;5054466;28;19996;-72
2022/11/12 06:40:56;;;;;;;;;;;8.60;99.90;;;;;;5053956;28;19988;-73
2022/11/12 06:43:22;;;;;;;;;;;8.70;99.90;;;;;;5053981;28;19982;-76
2022/11/12 06:45:47;;;;;;;;;;;8.70;99.90;;;;;;5054011;28;19908;-75
2022/11/12 06:48:13;;;;;;;;;;;8.70;99.90;;;;;;5053789;28;19943;-75
2022/11/12 06:50:38;;;;;;;;;;;8.70;99.90;;;;;;5054436;28;19909;-74
2022/11/12 06:53:04;;;;;;;;;;;8.70;99.90;;;;;;5053891;28;20017;-72
2022/11/12 06:55:29;;;;;;;;;;;8.70;99.90;;;;;;5053679;28;19909;-72
2022/11/12 06:57:55;;;;;;;;;;;8.70;99.90;;;;;;5053672;28;19909;-72
2022/11/12 07:00:21;;;;;;;;;;;8.70;99.90;;;;;;5053718;28;19909;-74
2022/11/12 07:02:46;;;;;;;;;;;8.70;99.90;;;;;;5053881;28;19946;-74
2022/11/12 07:05:12;;;;;;;;;;;8.80;99.90;;;;;;5053715;28;19909;-75
2022/11/12 07:07:37;;;;;;;;;;;8.90;99.90;;;;;;5053750;28;20348;-73
2022/11/12 07:10:03;;;;;;;;;;;9.00;99.90;;;;;;5054681;28;20420;-73
2022/11/12 07:12:29;;;;;;;;;;;9.00;99.90;;;;;;5057906;28;19912;-75
2022/11/12 07:14:55;;;;;;;;;;;9.00;99.90;;;;;;5057655;28;19979;-74
2022/11/12 07:17:20;;;;;;;;;;;9.10;99.90;;;;;;5057896;28;20284;-74
2022/11/12 07:19:46;;;;;;;;;;;9.20;99.90;;;;;;5057814;28;19909;-73
2022/11/12 07:22:11;;;;;;;;;;;9.10;99.90;;;;;;5057747;28;20000;-74
2022/11/12 07:24:37;;;;;;;;;;;9.10;99.90;;;;;;5057579;28;19932;-72
2022/11/12 07:27:03;;;;;;;;;;;9.10;99.90;;;;;;5057566;28;19952;-74
2022/11/12 07:29:28;;;;;;;;;;;9.10;99.90;;;;;;5057331;28;19921;-73
2022/11/12 07:31:54;;;;;;;;;;;9.20;99.90;;;;;;5039511;28;19919;-72
2022/11/12 07:34:19;;;;;;;;;;;9.30;99.90;;;;;;5057446;28;19909;-75
2022/11/12 07:36:45;;;;;;;;;;;9.20;99.90;;;;;;5057558;28;19909;-73
2022/11/12 07:39:12;;;;;;;;;;;9.30;99.90;;;;;;5057398;28;19913;-75
2022/11/12 07:41:37;;;;;;;;;;;9.40;99.90;;;;;;5057322;28;19909;-74
2022/11/12 07:44:03;;;;;;;;;;;9.30;99.90;;;;;;5057363;28;20335;-73
2022/11/12 07:46:28;;;;;;;;;;;9.40;99.90;;;;;;5057040;28;19915;-74
2022/11/12 07:48:55;;;;;;;;;;;9.40;99.90;;;;;;5057603;28;19916;-73
2022/11/12 07:51:22;;;;;;;;;;;9.50;99.90;;;;;;5057044;28;19915;-73
2022/11/12 07:53:48;;;;;;;;;;;9.60;99.90;;;;;;5057316;28;19908;-74
2022/11/12 07:56:17;;;;;;;;;;;9.70;99.90;;;;;;5057210;28;19920;-72
2022/11/12 07:58:43;;;;;;;;;;;9.80;99.90;;;;;;5057122;28;19916;-75
2022/11/12 08:01:10;;;;;;;;;;;9.90;99.90;;;;;;5057145;28;19915;-73
2022/11/12 08:03:36;;;;;;;;;;;9.90;99.90;;;;;;5056879;28;19931;-73
2022/11/12 08:06:01;;;;;;;;;;;10.00;99.90;;;;;;5056947;28;20373;-73
2022/11/12 08:08:27;;;;;;;;;;;10.00;99.90;;;;;;5056617;28;19913;-72
2022/11/12 08:10:54;;;;;;;;;;;10.00;99.90;;;;;;5056901;28;19939;-73
2022/11/12 08:13:19;;;;;;;;;;;10.10;99.90;;;;;;5056836;28;19909;-72
2022/11/12 08:15:45;;;;;;;;;;;10.30;99.90;;;;;;5056641;28;20004;-76
2022/11/12 08:18:10;;;;;;;;;;;10.40;99.90;;;;;;5038778;28;20381;-74
2022/11/12 08:20:36;;;;;;;;;;;10.40;99.90;;;;;;5057069;28;19909;-75
2022/11/12 08:23:02;;;;;;;;;;;10.50;99.90;;;;;;5056455;28;19954;-75
2022/11/12 08:25:28;;;;;;;;;;;10.50;99.90;;;;;;5056471;28;19908;-73
2022/11/12 08:27:57;;;;;;;;;;;10.50;97.40;;;;;;5038600;28;19916;-74
2022/11/12 08:30:23;;;;;;;;;;;10.50;99.90;;;;;;5056289;28;20051;-73
2022/11/12 08:32:54;;;;;;;;;;;10.60;99.90;;;;;;5056305;28;19952;-73
2022/11/12 08:35:20;;;;;;;;;;;10.70;96.80;;;;;;5056584;28;19909;-75
2022/11/12 08:37:45;;;;;;;;;;;10.80;90.20;;;;;;5056311;28;19909;-74
2022/11/12 08:40:11;;;;;;;;;;;10.90;70.30;;;;;;5056359;28;19909;-76
2022/11/12 08:42:37;;;;;;;;;;;10.90;65.50;;;;;;5056357;28;19909;-75
2022/11/12 08:45:02;;;;;;;;;;;11.00;49.40;;;;;;5038274;28;20363;-74
2022/11/12 08:47:28;;;;;;;;;;;11.20;40.90;;;;;;5056158;28;19909;-74
2022/11/12 08:49:53;;;;;;;;;;;11.10;1.00;;;;;;5056059;28;20345;-71
2022/11/12 08:52:19;;;;;;;;;;;11.20;1.00;;;;;;5056045;28;19916;-74
2022/11/12 08:54:45;;;;;;;;;;;11.20;1.00;;;;;;5055991;28;19909;-73
2022/11/12 08:57:10;;;;;;;;;;;11.10;1.00;;;;;;5055965;28;20373;-75
2022/11/12 08:59:36;;;;;;;;;;;11.10;1.00;;;;;;5055934;28;19913;-76
2022/11/12 09:02:01;;;;;;;;;;;11.00;1.00;;;;;;5055835;28;19935;-75
2022/11/12 09:04:27;;;;;;;;;;;11.10;1.00;;;;;;5056388;28;19916;-73
2022/11/12 09:06:53;;;;;;;;;;;11.10;1.00;;;;;;5055892;28;19912;-76
2022/11/12 09:09:18;;;;;;;;;;;11.20;1.00;;;;;;5055459;28;19912;-73
2022/11/12 09:11:44;;;;;;;;;;;11.20;1.00;;;;;;5055762;28;19909;-74
2022/11/12 09:14:09;;;;;;;;;;;11.30;1.00;;;;;;5055714;28;20284;-73
2022/11/12 09:16:35;;;;;;;;;;;11.40;1.00;;;;;;5055863;28;19909;-75
2022/11/12 09:19:01;;;;;;;;;;;11.50;1.00;;;;;;5029386;28;20007;-72
2022/11/12 09:21:26;;;;;;;;;;;11.50;1.00;;;;;;5056186;28;20369;-77
2022/11/12 09:23:52;;;;;;;;;;;11.60;1.00;;;;;;5055605;28;19978;-74
2022/11/12 09:26:18;;;;;;;;;;;11.70;1.00;;;;;;5020850;28;19928;-74
2022/11/12 09:28:44;;;;;;;;;;;11.90;1.00;;;;;;5042466;28;19913;-73
2022/11/12 09:31:10;;;;;;;;;;;12.10;1.00;;;;;;5034920;28;20388;-75
2022/11/12 09:33:36;;;;;;;;;;;12.30;1.00;;;;;;5034628;28;20415;-74
2022/11/12 09:36:02;;;;;;;;;;;12.50;99.90;;;;;;5035088;28;19909;-74
2022/11/12 09:38:28;;;;;;;;;;;12.50;99.90;;;;;;5034506;28;19913;-76
2022/11/12 09:41:10;;;;;;;;;;;12.60;99.90;;;;;;5035079;28;20289;-74
2022/11/12 09:43:42;;;;;;;;;;;12.80;70.30;;;;;;5035138;28;20316;-74
2022/11/12 09:46:13;;;;;;;;;;;12.80;24.70;;;;;;5034511;28;19909;-74
2022/11/12 09:48:40;;;;;;;;;;;13.00;69.30;;;;;;5044251;28;20352;-76
2022/11/12 09:51:24;;;;;;;;;;;13.20;61.50;;;;;;5054577;28;20389;-75
2022/11/12 09:53:55;;;;;;;;;;;13.30;1.00;;;;;;5054524;28;20324;-75
2022/11/12 09:56:21;;;;;;;;;;;13.30;1.00;;;;;;5037185;28;19931;-76
2022/11/12 09:58:47;;;;;;;;;;;13.60;1.00;;;;;;5055090;28;19916;-75
2022/11/12 10:01:15;;;;;;;;;;;13.80;1.00;;;;;;5054895;28;19912;-75
2022/11/12 10:04:05;;;;;;;;;;;14.20;1.00;;;;;;5055186;28;19916;-74
2022/11/12 10:06:39;;;;;;;;;;;14.40;99.90;;;;;;5055559;28;19909;-72
2022/11/12 10:09:27;;;;;;;;;;;14.20;99.90;;;;;;5043770;28;19913;-75
2022/11/12 10:16:41;;;;;;;;;;;14.90;99.90;;;;;;5034693;28;19982;-74
2022/11/12 10:17:53;;;;;;;;;;;15.20;99.90;;;;;;5033979;28;19960;-73
2022/11/12 10:20:24;;;;;;;;;;;15.50;99.90;;;;;;5012514;28;20302;-77
2022/11/12 10:22:59;;;;;;;;;;;15.60;99.90;;;;;;5034760;28;19909;-73
2022/11/12 10:25:25;;;;;;;;;;;16.10;99.90;;;;;;5034669;28;19909;-76
2022/11/12 10:27:53;;;;;;;;;;;17.10;99.90;;;;;;5034433;28;20400;-75
2022/11/12 10:30:20;;;;;;;;;;;18.50;99.90;;;;;;5033267;28;19956;-76
2022/11/12 10:32:46;;;;;;;;;;;18.50;96.10;;;;;;5034789;28;19959;-75
2022/11/12 10:35:14;;;;;;;;;;;19.10;88.50;;;;;;5034525;28;20378;-74
2022/11/12 10:37:44;;;;;;;;;;;19.80;82.00;;;;;;5034117;28;19916;-75
2022/11/12 10:40:30;;;;;;;;;;;21.50;53.40;;;;;;5033223;28;19909;-75
2022/11/12 10:42:57;;;;;;;;;;;21.70;26.10;;;;;;5034113;28;19909;-77
2022/11/12 10:45:23;;;;;;;;;;;21.50;20.90;;;;;;5032861;28;19952;-76
2022/11/12 10:47:49;;;;;;;;;;;21.90;21.40;;;;;;5034427;28;19963;-77
2022/11/12 10:50:33;;;;;;;;;;;23.40;16.40;;;;;;5051442;28;20452;-75
2022/11/12 10:53:00;;;;;;;;;;;23.50;6.10;;;;;;5054030;28;19909;-75
2022/11/12 10:55:27;;;;;;;;;;;23.40;2.80;;;;;;5053870;28;20008;-75
2022/11/12 10:58:02;;;;;;;;;;;23.30;2.90;;;;;;5053663;28;19909;-80
2022/11/12 11:00:27;;;;;;;;;;;24.10;1.00;;;;;;5054035;28;19913;-77
2022/11/12 11:02:53;;;;;;;;;;;24.20;1.00;;;;;;5053338;28;19913;-76
2022/11/12 11:05:36;;;;;;;;;;;23.80;1.00;;;;;;5028920;28;20480;-76
2022/11/12 11:08:02;;;;;;;;;;;24.00;1.00;;;;;;5053817;28;19909;-78
2022/11/12 11:10:30;;;;;;;;;;;24.30;1.00;;;;;;5028357;28;19924;-75
2022/11/12 11:13:14;;;;;;;;;;;24.80;1.00;;;;;;5053886;28;19967;-74
2022/11/12 11:15:39;;;;;;;;;;;24.40;1.00;;;;;;5054240;28;19909;-77
2022/11/12 11:18:07;;;;;;;;;;;24.20;1.00;;;;;;5053402;28;19913;-74
2022/11/12 11:20:49;;;;;;;;;;;23.60;1.00;;;;;;5039630;28;19909;-76
2022/11/12 11:23:34;;;;;;;;;;;24.10;1.00;;;;;;5033404;28;19919;-75
2022/11/12 11:26:05;;;;;;;;;;;24.80;1.00;;;;;;5032344;28;19959;-74
2022/11/12 11:28:31;;;;;;;;;;;24.80;1.00;;;;;;5033389;28;19932;-75
2022/11/12 11:31:02;;;;;;;;;;;24.60;1.00;;;;;;5033155;28;20282;-74
2022/11/12 11:33:34;;;;;;;;;;;24.50;1.00;;;;;;5033589;28;19951;-75
2022/11/12 11:36:19;;;;;;;;;;;25.20;1.00;;;;;;5033281;28;19972;-76
2022/11/12 11:38:47;;;;;;;;;;;25.70;1.00;;;;;;5033231;28;19913;-73
2022/11/12 11:41:31;;;;;;;;;;;26.00;1.00;;;;;;5032892;28;20402;-76
2022/11/12 11:44:20;;;;;;;;;;;26.20;1.00;;;;;;5033349;28;19909;-76
2022/11/12 11:47:05;;;;;;;;;;;26.60;1.00;;;;;;5023079;28;19955;-77
2022/11/12 11:49:41;;;;;;;;;;;27.60;1.00;;;;;;5032799;28;19913;-75
2022/11/12 11:52:24;;;;;;;;;;;27.40;1.00;;;;;;5033241;28;19909;-75
2022/11/12 11:54:59;;;;;;;;;;;27.30;1.00;;;;;;5033337;28;20382;-76
2022/11/12 11:57:28;;;;;;;;;;;27.20;1.00;;;;;;5036018;28;19909;-76
2022/11/12 12:00:08;;;;;;;;;;;26.70;1.00;;;;;;5036504;28;19992;-73
2022/11/12 12:02:43;;;;;;;;;;;27.00;1.00;;;;;;5036700;28;20370;-76
2022/11/12 12:05:09;;;;;;;;;;;27.30;1.00;;;;;;5036607;28;19952;-73
2022/11/12 12:07:53;;;;;;;;;;;26.90;1.00;;;;;;5036648;28;19948;-75
2022/11/12 12:10:23;;;;;;;;;;;27.40;1.00;;;;;;5011008;28;19944;-75
2022/11/12 12:13:09;;;;;;;;;;;28.00;1.00;;;;;;5036449;28;19909;-74
2022/11/12 12:15:38;;;;;;;;;;;27.80;1.00;;;;;;5036546;28;19909;-75
2022/11/12 12:18:04;;;;;;;;;;;27.80;1.00;;;;;;5036428;28;19917;-73
2022/11/12 12:20:32;;;;;;;;;;;28.10;1.00;;;;;;5036317;28;19955;-75
2022/11/12 12:23:01;;;;;;;;;;;28.00;1.00;;;;;;5036212;28;19936;-74
2022/11/12 12:25:30;;;;;;;;;;;28.10;1.00;;;;;;5036039;28;19963;-77
2022/11/12 12:27:55;;;;;;;;;;;27.60;1.00;;;;;;5036203;28;19916;-74
2022/11/12 12:30:23;;;;;;;;;;;27.80;1.00;;;;;;5035491;28;19921;-75
2022/11/12 12:32:55;;;;;;;;;;;28.00;1.00;;;;;;5036059;28;20381;-75
2022/11/12 12:35:24;;;;;;;;;;;28.40;1.00;;;;;;5036216;28;19912;-73
2022/11/12 12:38:05;;;;;;;;;;;28.20;1.00;;;;;;5035703;28;20440;-74
2022/11/12 12:40:30;;;;;;;;;;;28.90;1.00;;;;;;5035701;28;19940;-73
2022/11/12 12:43:01;;;;;;;;;;;28.90;1.00;;;;;;5036026;28;19909;-75
2022/11/12 12:45:31;;;;;;;;;;;28.80;1.00;;;;;;5036131;28;19909;-76
2022/11/12 12:47:57;;;;;;;;;;;29.30;1.00;;;;;;5035970;28;19913;-73
2022/11/12 12:50:24;;;;;;;;;;;30.10;1.00;;;;;;5035397;28;19916;-74
2022/11/12 12:53:14;;;;;;;;;;;29.70;1.00;;;;;;5035869;28;20420;-77
2022/11/12 12:55:41;;;;;;;;;;;29.80;1.00;;;;;;5035744;28;19940;-75
2022/11/12 12:58:17;;;;;;;;;;;30.10;1.00;;;;;;5035910;28;19955;-74
2022/11/12 13:00:48;;;;;;;;;;;31.30;1.00;;;;;;5035262;28;19919;-73
2022/11/12 13:03:34;;;;;;;;;;;31.30;1.00;;;;;;5035787;28;19978;-74
2022/11/12 13:06:06;;;;;;;;;;;31.30;1.00;;;;;;5035405;28;19913;-73
2022/11/12 13:08:34;;;;;;;;;;;32.00;1.00;;;;;;5034648;28;19909;-77
2022/11/12 13:10:59;;;;;;;;;;;33.10;1.00;;;;;;5011302;28;19917;-74
2022/11/12 13:13:29;;;;;;;;;;;32.20;1.00;;;;;;5035219;28;19916;-75
2022/11/12 13:15:57;;;;;;;;;;;33.00;1.00;;;;;;5035220;28;20001;-74
2022/11/12 13:18:38;;;;;;;;;;;32.60;1.00;;;;;;5035249;28;20061;-76
2022/11/12 13:21:12;;;;;;;;;;;31.90;1.00;;;;;;5034614;28;19956;-75
2022/11/12 13:26:41;;;;;;;;;;;31.90;1.00;;;;;;5034899;28;19916;-74
2022/11/12 13:29:23;;;;;;;;;;;32.50;1.00;;;;;;5035334;28;19916;-74
2022/11/12 13:31:49;;;;;;;;;;;33.30;1.00;;;;;;5014724;28;19921;-73
2022/11/12 13:34:17;;;;;;;;;;;33.30;1.00;;;;;;4997758;28;19960;-74
2022/11/12 13:36:54;;;;;;;;;;;33.40;1.00;;;;;;5014995;28;19951;-73
2022/11/12 13:39:21;;;;;;;;;;;33.60;1.00;;;;;;5015152;28;19913;-74
2022/11/12 13:44:38;;;;;;;;;;;33.40;1.00;;;;;;5014658;28;19917;-72
2022/11/12 13:47:04;;;;;;;;;;;32.50;1.00;;;;;;5014934;28;19914;-74
2022/11/12 13:49:29;;;;;;;;;;;32.80;1.00;;;;;;5014722;28;19948;-73
2022/11/12 13:51:56;;;;;;;;;;;33.60;1.00;;;;;;5014372;28;19916;-74
2022/11/12 13:54:26;;;;;;;;;;;33.80;1.00;;;;;;5014794;28;20385;-74
2022/11/12 13:56:51;;;;;;;;;;;33.20;1.00;;;;;;5014767;28;20341;-73
2022/11/12 13:59:18;;;;;;;;;;;33.10;1.00;;;;;;5014701;28;19963;-76
2022/11/12 14:01:44;;;;;;;;;;;32.10;1.00;;;;;;5014046;28;19914;-75
2022/11/12 14:04:12;;;;;;;;;;;32.10;1.00;;;;;;5014714;28;19964;-73
2022/11/12 14:06:40;;;;;;;;;;;31.80;1.00;;;;;;5014694;28;19909;-74
2022/11/12 14:09:19;;;;;;;;;;;32.20;1.00;;;;;;5014755;28;19916;-76
2022/11/12 14:11:44;;;;;;;;;;;32.00;1.00;;;;;;4991219;28;20022;-73
2022/11/12 14:14:11;;;;;;;;;;;32.10;1.00;;;;;;5014202;28;19909;-75
2022/11/12 14:16:51;;;;;;;;;;;31.90;1.00;;;;;;5014581;28;20282;-76
2022/11/12 14:19:36;;;;;;;;;;;32.40;1.00;;;;;;5014189;28;19914;-74
2022/11/12 14:22:07;;;;;;;;;;;32.20;1.00;;;;;;5013940;28;19909;-75
2022/11/12 14:24:32;;;;;;;;;;;31.30;1.00;;;;;;5014125;28;19913;-75
2022/11/12 14:26:58;;;;;;;;;;;31.50;1.00;;;;;;5014255;28;20307;-73
2022/11/12 14:29:24;;;;;;;;;;;30.90;1.00;;;;;;5016766;28;20016;-72
2022/11/12 14:31:58;;;;;;;;;;;31.30;1.00;;;;;;5053450;28;19924;-75
2022/11/12 14:34:27;;;;;;;;;;;31.00;1.00;;;;;;5053949;28;19913;-74
2022/11/12 14:36:54;;;;;;;;;;;30.50;1.00;;;;;;5053514;28;19909;-73
2022/11/12 14:39:21;;;;;;;;;;;30.70;1.00;;;;;;5053561;28;19920;-72
2022/11/12 14:41:48;;;;;;;;;;;30.60;1.00;;;;;;5053183;28;19915;-73
2022/11/12 14:44:16;;;;;;;;;;;30.50;1.00;;;;;;5053674;28;19913;-75
2022/11/12 14:46:46;;;;;;;;;;;30.60;1.00;;;;;;5053640;28;19909;-75
2022/11/12 14:49:12;;;;;;;;;;;30.30;1.00;;;;;;5053382;28;19995;-75
2022/11/12 14:52:00;;;;;;;;;;;29.60;1.00;;;;;;5053176;28;20399;-72
2022/11/12 14:54:30;;;;;;;;;;;29.60;1.00;;;;;;5053293;28;19954;-72
2022/11/12 14:56:56;;;;;;;;;;;28.90;1.00;;;;;;5053386;28;19935;-73
2022/11/12 14:59:22;;;;;;;;;;;28.70;1.00;;;;;;5053383;28;19913;-74
2022/11/12 15:02:20;;;;;;;;;;;28.70;1.00;;;;;;5053190;28;19916;-76
2022/11/12 15:04:53;;;;;;;;;;;28.40;1.00;;;;;;5009323;28;19935;-75
2022/11/12 15:07:26;;;;;;;;;;;28.00;1.00;;;;;;5053227;28;19916;-74
2022/11/12 15:09:52;;;;;;;;;;;28.40;1.00;;;;;;5053465;28;19982;-73
2022/11/12 15:12:19;;;;;;;;;;;28.10;1.00;;;;;;5014043;28;19949;-74